sensor_id;sensor_type;location;lat;lon;timestamp;temperature;humidity
13848;DHT22;6994;49.752;6.094;2023-12-20T00:02:14;6.60;99.90
13848;DHT22;6994;49.752;6.094;2023-12-20T00:04:41;6.60;99.90
13848;DHT22;6994;49.752;6.094;2023-12-20T00:07:08;6.60;99.90
13848;DHT22;6994;49.752;6.094;2023-12-20T00:09:35;6.60;99.90
13848;DHT22;6994;49.752;6.094;2023-12-20T00:12:03;6.60;99.90
13848;DHT22;6994;49.752;6.094;2023-12-20T00:14:30;6.60;99.90
13848;DHT22;6994;49.752;6.094;2023-12-20T00:16:57;6.60;99.90
13848;DHT22;6994;49.752;6.094;2023-12-20T00:19:24;6.60;99.90
13848;DHT22;6994;49.752;6.094;2023-12-20T00:21:51;6.60;99.90
13848;DHT22;6994;49.752;6.094;2023-12-20T00:24:19;6.60;99.90
13848;DHT22;6994;49.752;6.094;2023-12-20T00:26:46;6.60;99.90
13848;DHT22;6994;49.752;6.094;2023-12-20T00:29:13;6.60;99.90
13848;DHT22;6994;49.752;6.094;2023-12-20T00:31:40;6.60;99.90
13848;DHT22;6994;49.752;6.094;2023-12-20T00:34:07;6.60;99.90
13848;DHT22;6994;49.752;6.094;2023-12-20T00:36:35;6.50;99.90
13848;DHT22;6994;49.752;6.094;2023-12-20T00:39:02;6.50;99.90
13848;DHT22;6994;49.752;6.094;2023-12-20T00:41:29;6.50;99.90
13848;DHT22;6994;49.752;6.094;2023-12-20T00:43:56;6.50;99.90
13848;DHT22;6994;49.752;6.094;2023-12-20T00:46:23;6.40;99.90
13848;DHT22;6994;49.752;6.094;2023-12-20T00:48:51;6.40;99.90
13848;DHT22;6994;49.752;6.094;2023-12-20T00:51:18;6.40;99.90
13848;DHT22;6994;49.752;6.094;2023-12-20T00:53:45;6.40;99.90
13848;DHT22;6994;49.752;6.094;2023-12-20T00:56:12;6.40;99.90
13848;DHT22;6994;49.752;6.094;2023-12-20T00:58:39;6.30;99.90
13848;DHT22;6994;49.752;6.094;2023-12-20T01:01:07;6.30;99.90
13848;DHT22;6994;49.752;6.094;2023-12-20T01:03:34;6.30;99.90
13848;DHT22;6994;49.752;6.094;2023-12-20T01:06:01;6.60;99.90
13848;DHT22;6994;49.752;6.094;2023-12-20T01:08:28;6.60;99.90
13848;DHT22;6994;49.752;6.094;2023-12-20T01:10:55;6.90;99.90
13848;DHT22;6994;49.752;6.094;2023-12-20T01:13:23;6.90;99.90
13848;DHT22;6994;49.752;6.094;2023-12-20T01:15:50;6.80;99.90
13848;DHT22;6994;49.752;6.094;2023-12-20T01:18:17;6.70;99.90
13848;DHT22;6994;49.752;6.094;2023-12-20T01:20:44;6.90;99.90
13848;DHT22;6994;49.752;6.094;2023-12-20T01:23:11;6.90;99.90
13848;DHT22;6994;49.752;6.094;2023-12-20T01:25:39;6.80;99.90
13848;DHT22;6994;49.752;6.094;2023-12-20T01:28:06;7.00;99.90
13848;DHT22;6994;49.752;6.094;2023-12-20T01:30:33;7.30;99.90
13848;DHT22;6994;49.752;6.094;2023-12-20T01:33:00;7.20;99.90
13848;DHT22;6994;49.752;6.094;2023-12-20T01:35:27;7.10;99.90
13848;DHT22;6994;49.752;6.094;2023-12-20T01:37:55;7.00;99.90
13848;DHT22;6994;49.752;6.094;2023-12-20T01:40:25;7.20;99.90
13848;DHT22;6994;49.752;6.094;2023-12-20T01:42:59;7.20;99.90
13848;DHT22;6994;49.752;6.094;2023-12-20T01:45:25;7.10;99.90
13848;DHT22;6994;49.752;6.094;2023-12-20T01:47:53;7.30;99.90
13848;DHT22;6994;49.752;6.094;2023-12-20T01:50:20;7.50;99.90
13848;DHT22;6994;49.752;6.094;2023-12-20T01:52:47;7.40;99.90
13848;DHT22;6994;49.752;6.094;2023-12-20T01:55:14;7.50;99.90
13848;DHT22;6994;49.752;6.094;2023-12-20T01:57:41;7.40;99.90
13848;DHT22;6994;49.752;6.094;2023-12-20T02:00:09;7.20;99.90
13848;DHT22;6994;49.752;6.094;2023-12-20T02:02:37;7.10;99.90
13848;DHT22;6994;49.752;6.094;2023-12-20T02:05:03;7.20;99.90
13848;DHT22;6994;49.752;6.094;2023-12-20T02:07:30;7.20;99.90
13848;DHT22;6994;49.752;6.094;2023-12-20T02:09:58;7.10;99.90
13848;DHT22;6994;49.752;6.094;2023-12-20T02:12:25;7.00;99.90
13848;DHT22;6994;49.752;6.094;2023-12-20T02:14:52;6.90;99.90
13848;DHT22;6994;49.752;6.094;2023-12-20T02:17:19;6.90;99.90
13848;DHT22;6994;49.752;6.094;2023-12-20T02:19:46;6.90;99.90
13848;DHT22;6994;49.752;6.094;2023-12-20T02:22:14;6.80;99.90
13848;DHT22;6994;49.752;6.094;2023-12-20T02:24:41;7.00;99.90
13848;DHT22;6994;49.752;6.094;2023-12-20T02:27:08;7.00;99.90
13848;DHT22;6994;49.752;6.094;2023-12-20T02:29:35;7.00;99.90
13848;DHT22;6994;49.752;6.094;2023-12-20T02:32:02;6.90;99.90
13848;DHT22;6994;49.752;6.094;2023-12-20T02:34:30;6.90;99.90
13848;DHT22;6994;49.752;6.094;2023-12-20T02:36:57;6.80;99.90
13848;DHT22;6994;49.752;6.094;2023-12-20T02:39:24;6.70;99.90
13848;DHT22;6994;49.752;6.094;2023-12-20T02:41:51;6.60;99.90
13848;DHT22;6994;49.752;6.094;2023-12-20T02:44:18;6.50;99.90
13848;DHT22;6994;49.752;6.094;2023-12-20T02:46:46;6.50;99.90
13848;DHT22;6994;49.752;6.094;2023-12-20T02:49:13;6.40;99.90
13848;DHT22;6994;49.752;6.094;2023-12-20T02:51:40;6.40;99.90
13848;DHT22;6994;49.752;6.094;2023-12-20T02:54:07;6.40;99.90
13848;DHT22;6994;49.752;6.094;2023-12-20T02:56:35;6.40;99.90
13848;DHT22;6994;49.752;6.094;2023-12-20T02:59:02;6.40;99.90
13848;DHT22;6994;49.752;6.094;2023-12-20T03:01:30;6.30;99.90
13848;DHT22;6994;49.752;6.094;2023-12-20T03:03:58;6.20;99.90
13848;DHT22;6994;49.752;6.094;2023-12-20T03:06:25;6.10;99.90
13848;DHT22;6994;49.752;6.094;2023-12-20T03:08:53;6.00;99.90
13848;DHT22;6994;49.752;6.094;2023-12-20T03:11:21;5.90;99.90
13848;DHT22;6994;49.752;6.094;2023-12-20T03:13:49;5.70;99.90
13848;DHT22;6994;49.752;6.094;2023-12-20T03:16:17;5.60;99.90
13848;DHT22;6994;49.752;6.094;2023-12-20T03:18:45;5.60;99.90
13848;DHT22;6994;49.752;6.094;2023-12-20T03:21:12;5.50;99.90
13848;DHT22;6994;49.752;6.094;2023-12-20T03:23:39;5.40;99.90
13848;DHT22;6994;49.752;6.094;2023-12-20T03:26:09;5.30;99.90
13848;DHT22;6994;49.752;6.094;2023-12-20T03:28:37;5.30;99.90
13848;DHT22;6994;49.752;6.094;2023-12-20T03:31:04;5.30;99.90
13848;DHT22;6994;49.752;6.094;2023-12-20T03:33:31;5.30;99.90
13848;DHT22;6994;49.752;6.094;2023-12-20T03:35:58;5.20;99.90
13848;DHT22;6994;49.752;6.094;2023-12-20T03:38:25;5.20;99.90
13848;DHT22;6994;49.752;6.094;2023-12-20T03:40:53;5.20;99.90
13848;DHT22;6994;49.752;6.094;2023-12-20T03:43:20;5.20;99.90
13848;DHT22;6994;49.752;6.094;2023-12-20T03:45:47;5.30;99.90
13848;DHT22;6994;49.752;6.094;2023-12-20T03:48:14;5.40;99.90
13848;DHT22;6994;49.752;6.094;2023-12-20T03:50:41;5.40;99.90
13848;DHT22;6994;49.752;6.094;2023-12-20T03:53:09;5.30;99.90
13848;DHT22;6994;49.752;6.094;2023-12-20T03:55:36;5.50;99.90
13848;DHT22;6994;49.752;6.094;2023-12-20T03:58:03;5.60;99.90
13848;DHT22;6994;49.752;6.094;2023-12-20T04:00:30;5.70;99.90
13848;DHT22;6994;49.752;6.094;2023-12-20T04:02:58;5.90;99.90
13848;DHT22;6994;49.752;6.094;2023-12-20T04:05:25;5.90;99.90
13848;DHT22;6994;49.752;6.094;2023-12-20T04:07:53;5.90;99.90
13848;DHT22;6994;49.752;6.094;2023-12-20T04:10:20;5.80;99.90
13848;DHT22;6994;49.752;6.094;2023-12-20T04:12:47;5.70;99.90
13848;DHT22;6994;49.752;6.094;2023-12-20T04:15:14;5.60;99.90
13848;DHT22;6994;49.752;6.094;2023-12-20T04:17:41;5.50;99.90
13848;DHT22;6994;49.752;6.094;2023-12-20T04:20:09;5.40;99.90
13848;DHT22;6994;49.752;6.094;2023-12-20T04:22:36;5.60;99.90
13848;DHT22;6994;49.752;6.094;2023-12-20T04:25:04;5.50;99.90
13848;DHT22;6994;49.752;6.094;2023-12-20T04:27:31;5.50;99.90
13848;DHT22;6994;49.752;6.094;2023-12-20T04:29:59;5.40;99.90
13848;DHT22;6994;49.752;6.094;2023-12-20T04:32:27;5.30;99.90
13848;DHT22;6994;49.752;6.094;2023-12-20T04:34:54;5.30;99.90
13848;DHT22;6994;49.752;6.094;2023-12-20T04:37:21;5.30;99.90
13848;DHT22;6994;49.752;6.094;2023-12-20T04:39:49;5.30;99.90
13848;DHT22;6994;49.752;6.094;2023-12-20T04:42:16;5.30;99.90
13848;DHT22;6994;49.752;6.094;2023-12-20T04:44:43;5.30;99.90
13848;DHT22;6994;49.752;6.094;2023-12-20T04:47:13;5.30;99.90
13848;DHT22;6994;49.752;6.094;2023-12-20T04:49:40;5.30;99.90
13848;DHT22;6994;49.752;6.094;2023-12-20T04:52:07;5.30;99.90
13848;DHT22;6994;49.752;6.094;2023-12-20T04:54:34;5.30;99.90
13848;DHT22;6994;49.752;6.094;2023-12-20T04:57:02;5.30;99.90
13848;DHT22;6994;49.752;6.094;2023-12-20T04:59:29;5.60;99.90
13848;DHT22;6994;49.752;6.094;2023-12-20T05:01:56;5.80;99.90
13848;DHT22;6994;49.752;6.094;2023-12-20T05:04:23;5.80;99.90
13848;DHT22;6994;49.752;6.094;2023-12-20T05:06:50;5.80;99.90
13848;DHT22;6994;49.752;6.094;2023-12-20T05:09:18;6.00;99.90
13848;DHT22;6994;49.752;6.094;2023-12-20T05:11:46;6.30;99.90
13848;DHT22;6994;49.752;6.094;2023-12-20T05:14:14;6.40;99.90
13848;DHT22;6994;49.752;6.094;2023-12-20T05:16:41;6.40;99.90
13848;DHT22;6994;49.752;6.094;2023-12-20T05:19:08;6.30;99.90
13848;DHT22;6994;49.752;6.094;2023-12-20T05:21:36;6.20;99.90
13848;DHT22;6994;49.752;6.094;2023-12-20T05:24:03;6.20;99.90
13848;DHT22;6994;49.752;6.094;2023-12-20T05:26:30;6.20;99.90
13848;DHT22;6994;49.752;6.094;2023-12-20T05:28:58;6.10;99.90
13848;DHT22;6994;49.752;6.094;2023-12-20T05:31:26;6.10;99.90
13848;DHT22;6994;49.752;6.094;2023-12-20T05:33:54;6.10;99.90
13848;DHT22;6994;49.752;6.094;2023-12-20T05:36:22;6.10;99.90
13848;DHT22;6994;49.752;6.094;2023-12-20T05:38:50;6.00;99.90
13848;DHT22;6994;49.752;6.094;2023-12-20T05:41:18;6.00;99.90
13848;DHT22;6994;49.752;6.094;2023-12-20T05:43:45;6.00;99.90
13848;DHT22;6994;49.752;6.094;2023-12-20T05:46:13;6.00;99.90
13848;DHT22;6994;49.752;6.094;2023-12-20T05:48:40;5.90;99.90
13848;DHT22;6994;49.752;6.094;2023-12-20T05:51:07;5.90;99.90
13848;DHT22;6994;49.752;6.094;2023-12-20T05:53:34;5.90;99.90
13848;DHT22;6994;49.752;6.094;2023-12-20T05:56:02;5.90;99.90
13848;DHT22;6994;49.752;6.094;2023-12-20T05:58:29;5.90;99.90
13848;DHT22;6994;49.752;6.094;2023-12-20T06:00:56;5.90;99.90
13848;DHT22;6994;49.752;6.094;2023-12-20T06:03:24;5.90;99.90
13848;DHT22;6994;49.752;6.094;2023-12-20T06:05:51;5.90;99.90
13848;DHT22;6994;49.752;6.094;2023-12-20T06:08:18;5.90;99.90
13848;DHT22;6994;49.752;6.094;2023-12-20T06:10:45;5.90;99.90
13848;DHT22;6994;49.752;6.094;2023-12-20T06:13:13;6.00;99.90
13848;DHT22;6994;49.752;6.094;2023-12-20T06:15:40;6.00;99.90
13848;DHT22;6994;49.752;6.094;2023-12-20T06:18:07;6.00;99.90
13848;DHT22;6994;49.752;6.094;2023-12-20T06:20:35;6.00;99.90
13848;DHT22;6994;49.752;6.094;2023-12-20T06:23:01;6.30;99.90
13848;DHT22;6994;49.752;6.094;2023-12-20T06:25:29;6.30;99.90
13848;DHT22;6994;49.752;6.094;2023-12-20T06:27:56;6.30;99.90
13848;DHT22;6994;49.752;6.094;2023-12-20T06:30:23;6.30;99.90
13848;DHT22;6994;49.752;6.094;2023-12-20T06:32:50;6.30;99.90
13848;DHT22;6994;49.752;6.094;2023-12-20T06:35:18;6.30;99.90
13848;DHT22;6994;49.752;6.094;2023-12-20T06:37:46;6.20;99.90
13848;DHT22;6994;49.752;6.094;2023-12-20T06:40:13;6.20;99.90
13848;DHT22;6994;49.752;6.094;2023-12-20T06:42:40;6.20;99.90
13848;DHT22;6994;49.752;6.094;2023-12-20T06:45:08;6.10;99.90
13848;DHT22;6994;49.752;6.094;2023-12-20T06:47:35;6.10;99.90
13848;DHT22;6994;49.752;6.094;2023-12-20T06:50:02;6.10;99.90
13848;DHT22;6994;49.752;6.094;2023-12-20T06:52:30;6.10;99.90
13848;DHT22;6994;49.752;6.094;2023-12-20T06:54:57;6.10;99.90
13848;DHT22;6994;49.752;6.094;2023-12-20T06:57:24;6.10;99.90
13848;DHT22;6994;49.752;6.094;2023-12-20T06:59:52;6.10;99.90
13848;DHT22;6994;49.752;6.094;2023-12-20T07:02:18;6.20;99.90
13848;DHT22;6994;49.752;6.094;2023-12-20T07:04:46;6.40;99.90
13848;DHT22;6994;49.752;6.094;2023-12-20T07:07:13;6.40;99.90
13848;DHT22;6994;49.752;6.094;2023-12-20T07:09:40;6.60;99.90
13848;DHT22;6994;49.752;6.094;2023-12-20T07:12:07;6.70;99.90
13848;DHT22;6994;49.752;6.094;2023-12-20T07:14:34;6.60;99.90
13848;DHT22;6994;49.752;6.094;2023-12-20T07:17:02;6.60;99.90
13848;DHT22;6994;49.752;6.094;2023-12-20T07:19:29;6.50;99.90
13848;DHT22;6994;49.752;6.094;2023-12-20T07:21:56;6.60;99.90
13848;DHT22;6994;49.752;6.094;2023-12-20T07:24:23;6.60;99.90
13848;DHT22;6994;49.752;6.094;2023-12-20T07:26:50;6.50;99.90
13848;DHT22;6994;49.752;6.094;2023-12-20T07:29:18;6.40;99.90
13848;DHT22;6994;49.752;6.094;2023-12-20T07:31:45;6.40;99.90
13848;DHT22;6994;49.752;6.094;2023-12-20T07:34:12;6.30;99.90
13848;DHT22;6994;49.752;6.094;2023-12-20T07:36:39;6.30;99.90
13848;DHT22;6994;49.752;6.094;2023-12-20T07:39:06;6.20;99.90
13848;DHT22;6994;49.752;6.094;2023-12-20T07:41:34;6.20;99.90
13848;DHT22;6994;49.752;6.094;2023-12-20T07:44:01;6.20;99.90
13848;DHT22;6994;49.752;6.094;2023-12-20T07:46:28;6.20;99.90
13848;DHT22;6994;49.752;6.094;2023-12-20T07:48:55;6.40;99.90
13848;DHT22;6994;49.752;6.094;2023-12-20T07:51:22;6.40;99.90
13848;DHT22;6994;49.752;6.094;2023-12-20T07:53:50;6.40;99.90
13848;DHT22;6994;49.752;6.094;2023-12-20T07:56:17;6.40;99.90
13848;DHT22;6994;49.752;6.094;2023-12-20T07:58:44;6.40;99.90
13848;DHT22;6994;49.752;6.094;2023-12-20T08:01:11;6.30;99.90
13848;DHT22;6994;49.752;6.094;2023-12-20T08:03:38;6.30;99.90
13848;DHT22;6994;49.752;6.094;2023-12-20T08:06:06;6.20;99.90
13848;DHT22;6994;49.752;6.094;2023-12-20T08:08:33;6.20;99.90
13848;DHT22;6994;49.752;6.094;2023-12-20T08:11:00;6.10;99.90
13848;DHT22;6994;49.752;6.094;2023-12-20T08:13:28;6.10;99.90
13848;DHT22;6994;49.752;6.094;2023-12-20T08:15:55;6.10;99.90
13848;DHT22;6994;49.752;6.094;2023-12-20T08:18:22;6.10;99.90
13848;DHT22;6994;49.752;6.094;2023-12-20T08:20:49;6.10;99.90
13848;DHT22;6994;49.752;6.094;2023-12-20T08:23:16;6.30;99.90
13848;DHT22;6994;49.752;6.094;2023-12-20T08:25:43;6.40;99.90
13848;DHT22;6994;49.752;6.094;2023-12-20T08:28:10;6.40;99.90
13848;DHT22;6994;49.752;6.094;2023-12-20T08:30:38;6.40;99.90
13848;DHT22;6994;49.752;6.094;2023-12-20T08:33:06;6.40;99.90
13848;DHT22;6994;49.752;6.094;2023-12-20T08:35:32;6.40;99.90
13848;DHT22;6994;49.752;6.094;2023-12-20T08:37:59;6.40;99.90
13848;DHT22;6994;49.752;6.094;2023-12-20T08:40:26;6.40;99.90
13848;DHT22;6994;49.752;6.094;2023-12-20T08:42:54;6.30;99.90
13848;DHT22;6994;49.752;6.094;2023-12-20T08:45:21;6.30;99.90
13848;DHT22;6994;49.752;6.094;2023-12-20T08:47:49;6.20;99.90
13848;DHT22;6994;49.752;6.094;2023-12-20T08:50:16;6.20;99.90
13848;DHT22;6994;49.752;6.094;2023-12-20T08:52:43;6.10;99.90
13848;DHT22;6994;49.752;6.094;2023-12-20T08:55:11;6.10;99.90
13848;DHT22;6994;49.752;6.094;2023-12-20T08:57:38;6.10;99.90
13848;DHT22;6994;49.752;6.094;2023-12-20T09:00:06;6.10;99.90
13848;DHT22;6994;49.752;6.094;2023-12-20T09:02:33;6.20;99.90
13848;DHT22;6994;49.752;6.094;2023-12-20T09:05:00;6.30;99.90
13848;DHT22;6994;49.752;6.094;2023-12-20T09:07:27;6.40;99.90
13848;DHT22;6994;49.752;6.094;2023-12-20T09:09:55;6.40;99.90
13848;DHT22;6994;49.752;6.094;2023-12-20T09:12:22;6.50;99.90
13848;DHT22;6994;49.752;6.094;2023-12-20T09:14:49;6.50;99.90
13848;DHT22;6994;49.752;6.094;2023-12-20T09:17:16;6.50;99.90
13848;DHT22;6994;49.752;6.094;2023-12-20T09:19:44;6.60;99.90
13848;DHT22;6994;49.752;6.094;2023-12-20T09:22:11;6.60;99.90
13848;DHT22;6994;49.752;6.094;2023-12-20T09:24:38;6.60;99.90
13848;DHT22;6994;49.752;6.094;2023-12-20T09:27:08;6.70;99.90
13848;DHT22;6994;49.752;6.094;2023-12-20T09:29:36;6.60;99.90
13848;DHT22;6994;49.752;6.094;2023-12-20T09:32:03;6.60;99.90
13848;DHT22;6994;49.752;6.094;2023-12-20T09:34:30;6.60;99.90
13848;DHT22;6994;49.752;6.094;2023-12-20T09:36:58;6.80;99.90
13848;DHT22;6994;49.752;6.094;2023-12-20T09:39:25;6.80;99.90
13848;DHT22;6994;49.752;6.094;2023-12-20T09:42:02;6.80;99.90
13848;DHT22;6994;49.752;6.094;2023-12-20T09:44:29;6.90;99.90
13848;DHT22;6994;49.752;6.094;2023-12-20T09:46:57;7.10;99.90
13848;DHT22;6994;49.752;6.094;2023-12-20T09:49:24;7.10;99.90
13848;DHT22;6994;49.752;6.094;2023-12-20T09:51:51;7.20;99.90
13848;DHT22;6994;49.752;6.094;2023-12-20T09:54:18;7.20;99.90
13848;DHT22;6994;49.752;6.094;2023-12-20T09:56:45;7.20;99.90
13848;DHT22;6994;49.752;6.094;2023-12-20T09:59:13;7.30;99.90
13848;DHT22;6994;49.752;6.094;2023-12-20T10:01:40;7.30;99.90
13848;DHT22;6994;49.752;6.094;2023-12-20T10:04:09;7.30;99.90
13848;DHT22;6994;49.752;6.094;2023-12-20T10:06:36;7.40;99.90
13848;DHT22;6994;49.752;6.094;2023-12-20T10:09:03;7.30;99.90
13848;DHT22;6994;49.752;6.094;2023-12-20T10:11:30;7.30;99.90
13848;DHT22;6994;49.752;6.094;2023-12-20T10:14:01;7.40;99.90
13848;DHT22;6994;49.752;6.094;2023-12-20T10:16:29;7.30;99.90
13848;DHT22;6994;49.752;6.094;2023-12-20T10:18:56;7.30;99.90
13848;DHT22;6994;49.752;6.094;2023-12-20T10:21:23;7.50;99.90
13848;DHT22;6994;49.752;6.094;2023-12-20T10:23:50;7.50;99.90
13848;DHT22;6994;49.752;6.094;2023-12-20T10:26:23;7.50;99.90
13848;DHT22;6994;49.752;6.094;2023-12-20T10:28:52;7.50;99.90
13848;DHT22;6994;49.752;6.094;2023-12-20T10:31:32;7.40;99.90
13848;DHT22;6994;49.752;6.094;2023-12-20T10:34:00;7.40;99.90
13848;DHT22;6994;49.752;6.094;2023-12-20T10:36:27;7.40;99.90
13848;DHT22;6994;49.752;6.094;2023-12-20T10:38:54;7.40;99.90
13848;DHT22;6994;49.752;6.094;2023-12-20T10:41:24;7.40;99.90
13848;DHT22;6994;49.752;6.094;2023-12-20T10:43:48;7.70;99.90
13848;DHT22;6994;49.752;6.094;2023-12-20T10:46:15;7.70;99.90
13848;DHT22;6994;49.752;6.094;2023-12-20T10:48:42;7.70;99.90
13848;DHT22;6994;49.752;6.094;2023-12-20T10:51:10;7.70;99.90
13848;DHT22;6994;49.752;6.094;2023-12-20T10:53:37;7.90;99.90
13848;DHT22;6994;49.752;6.094;2023-12-20T10:56:04;8.00;99.90
13848;DHT22;6994;49.752;6.094;2023-12-20T10:58:32;8.20;99.90
13848;DHT22;6994;49.752;6.094;2023-12-20T11:00:59;8.30;99.90
13848;DHT22;6994;49.752;6.094;2023-12-20T11:03:26;8.30;99.90
13848;DHT22;6994;49.752;6.094;2023-12-20T11:05:58;8.50;99.90
13848;DHT22;6994;49.752;6.094;2023-12-20T11:08:33;8.50;99.90
13848;DHT22;6994;49.752;6.094;2023-12-20T11:11:12;8.60;99.90
13848;DHT22;6994;49.752;6.094;2023-12-20T11:13:37;8.50;99.90
13848;DHT22;6994;49.752;6.094;2023-12-20T11:16:04;8.50;99.90
13848;DHT22;6994;49.752;6.094;2023-12-20T11:18:31;8.40;99.90
13848;DHT22;6994;49.752;6.094;2023-12-20T11:21:02;8.50;99.90
13848;DHT22;6994;49.752;6.094;2023-12-20T11:23:32;8.50;99.90
13848;DHT22;6994;49.752;6.094;2023-12-20T11:25:59;8.50;99.90
13848;DHT22;6994;49.752;6.094;2023-12-20T11:28:26;8.40;99.90
13848;DHT22;6994;49.752;6.094;2023-12-20T11:30:54;8.30;99.90
13848;DHT22;6994;49.752;6.094;2023-12-20T11:33:24;8.20;99.90
13848;DHT22;6994;49.752;6.094;2023-12-20T11:35:51;8.10;99.90
13848;DHT22;6994;49.752;6.094;2023-12-20T11:38:19;8.10;99.90
13848;DHT22;6994;49.752;6.094;2023-12-20T11:40:45;8.00;99.90
13848;DHT22;6994;49.752;6.094;2023-12-20T11:43:12;8.00;99.90
13848;DHT22;6994;49.752;6.094;2023-12-20T11:45:47;8.00;99.90
13848;DHT22;6994;49.752;6.094;2023-12-20T11:48:06;8.00;99.90
13848;DHT22;6994;49.752;6.094;2023-12-20T11:50:34;8.00;99.90
13848;DHT22;6994;49.752;6.094;2023-12-20T11:53:02;8.00;99.90
13848;DHT22;6994;49.752;6.094;2023-12-20T11:55:30;7.90;99.90
13848;DHT22;6994;49.752;6.094;2023-12-20T11:57:57;7.90;99.90
13848;DHT22;6994;49.752;6.094;2023-12-20T12:00:24;7.80;99.90
13848;DHT22;6994;49.752;6.094;2023-12-20T12:02:56;7.80;99.90
13848;DHT22;6994;49.752;6.094;2023-12-20T12:05:22;7.70;99.90
13848;DHT22;6994;49.752;6.094;2023-12-20T12:07:49;7.80;99.90
13848;DHT22;6994;49.752;6.094;2023-12-20T12:10:17;8.00;99.90
13848;DHT22;6994;49.752;6.094;2023-12-20T12:12:44;8.10;99.90
13848;DHT22;6994;49.752;6.094;2023-12-20T12:15:11;8.00;99.90
13848;DHT22;6994;49.752;6.094;2023-12-20T12:17:38;8.00;99.90
13848;DHT22;6994;49.752;6.094;2023-12-20T12:20:06;7.90;99.90
13848;DHT22;6994;49.752;6.094;2023-12-20T12:22:33;7.70;99.90
13848;DHT22;6994;49.752;6.094;2023-12-20T12:25:08;7.60;99.90
13848;DHT22;6994;49.752;6.094;2023-12-20T12:27:27;7.50;99.90
13848;DHT22;6994;49.752;6.094;2023-12-20T12:30:04;7.40;99.90
13848;DHT22;6994;49.752;6.094;2023-12-20T12:32:31;7.50;99.90
13848;DHT22;6994;49.752;6.094;2023-12-20T12:34:59;7.50;99.90
13848;DHT22;6994;49.752;6.094;2023-12-20T12:37:27;7.40;99.90
13848;DHT22;6994;49.752;6.094;2023-12-20T12:39:54;7.40;99.90
13848;DHT22;6994;49.752;6.094;2023-12-20T12:42:22;7.30;99.90
13848;DHT22;6994;49.752;6.094;2023-12-20T12:44:50;7.30;99.90
13848;DHT22;6994;49.752;6.094;2023-12-20T12:47:17;7.30;99.90
13848;DHT22;6994;49.752;6.094;2023-12-20T12:49:44;7.30;99.90
13848;DHT22;6994;49.752;6.094;2023-12-20T12:52:12;7.30;99.90
13848;DHT22;6994;49.752;6.094;2023-12-20T12:54:39;7.30;99.90
13848;DHT22;6994;49.752;6.094;2023-12-20T12:57:06;7.20;99.90
13848;DHT22;6994;49.752;6.094;2023-12-20T12:59:33;7.20;99.90
13848;DHT22;6994;49.752;6.094;2023-12-20T13:02:00;7.10;99.90
13848;DHT22;6994;49.752;6.094;2023-12-20T13:04:27;7.10;99.90
13848;DHT22;6994;49.752;6.094;2023-12-20T13:06:55;7.00;99.90
13848;DHT22;6994;49.752;6.094;2023-12-20T13:09:22;7.00;99.90
13848;DHT22;6994;49.752;6.094;2023-12-20T13:11:49;6.90;99.90
13848;DHT22;6994;49.752;6.094;2023-12-20T13:14:16;6.90;99.90
13848;DHT22;6994;49.752;6.094;2023-12-20T13:16:43;6.80;99.90
13848;DHT22;6994;49.752;6.094;2023-12-20T13:19:11;6.80;99.90
13848;DHT22;6994;49.752;6.094;2023-12-20T13:21:38;6.80;99.90
13848;DHT22;6994;49.752;6.094;2023-12-20T13:24:05;6.70;99.90
13848;DHT22;6994;49.752;6.094;2023-12-20T13:26:32;6.80;99.90
13848;DHT22;6994;49.752;6.094;2023-12-20T13:28:59;6.80;99.90
13848;DHT22;6994;49.752;6.094;2023-12-20T13:31:27;6.80;99.90
13848;DHT22;6994;49.752;6.094;2023-12-20T13:33:54;6.90;99.90
13848;DHT22;6994;49.752;6.094;2023-12-20T13:36:21;6.90;99.90
13848;DHT22;6994;49.752;6.094;2023-12-20T13:38:48;6.90;99.90
13848;DHT22;6994;49.752;6.094;2023-12-20T13:41:15;6.90;99.90
13848;DHT22;6994;49.752;6.094;2023-12-20T13:43:43;6.90;99.90
13848;DHT22;6994;49.752;6.094;2023-12-20T13:46:10;6.90;99.90
13848;DHT22;6994;49.752;6.094;2023-12-20T13:48:37;6.90;99.90
13848;DHT22;6994;49.752;6.094;2023-12-20T13:51:04;6.90;99.90
13848;DHT22;6994;49.752;6.094;2023-12-20T13:53:32;6.90;99.90
13848;DHT22;6994;49.752;6.094;2023-12-20T13:55:59;6.90;99.90
13848;DHT22;6994;49.752;6.094;2023-12-20T13:58:26;6.90;99.90
13848;DHT22;6994;49.752;6.094;2023-12-20T14:00:53;6.90;99.90
13848;DHT22;6994;49.752;6.094;2023-12-20T14:03:20;7.10;99.90
13848;DHT22;6994;49.752;6.094;2023-12-20T14:05:48;7.20;99.90
13848;DHT22;6994;49.752;6.094;2023-12-20T14:08:15;7.20;99.90
13848;DHT22;6994;49.752;6.094;2023-12-20T14:10:43;7.20;99.90
13848;DHT22;6994;49.752;6.094;2023-12-20T14:13:11;7.10;99.90
13848;DHT22;6994;49.752;6.094;2023-12-20T14:15:38;7.10;99.90
13848;DHT22;6994;49.752;6.094;2023-12-20T14:18:05;7.10;99.90
13848;DHT22;6994;49.752;6.094;2023-12-20T14:20:32;7.00;99.90
13848;DHT22;6994;49.752;6.094;2023-12-20T14:23:00;7.00;99.90
13848;DHT22;6994;49.752;6.094;2023-12-20T14:25:27;6.90;99.90
13848;DHT22;6994;49.752;6.094;2023-12-20T14:27:56;6.90;99.90
13848;DHT22;6994;49.752;6.094;2023-12-20T14:30:23;6.90;99.90
13848;DHT22;6994;49.752;6.094;2023-12-20T14:32:50;6.80;99.90
13848;DHT22;6994;49.752;6.094;2023-12-20T14:35:17;6.90;99.90
13848;DHT22;6994;49.752;6.094;2023-12-20T14:37:44;6.80;99.90
13848;DHT22;6994;49.752;6.094;2023-12-20T14:40:11;6.90;99.90
13848;DHT22;6994;49.752;6.094;2023-12-20T14:42:44;6.90;99.90
13848;DHT22;6994;49.752;6.094;2023-12-20T14:45:12;6.90;99.90
13848;DHT22;6994;49.752;6.094;2023-12-20T14:47:42;6.90;99.90
13848;DHT22;6994;49.752;6.094;2023-12-20T14:50:09;6.90;99.90
13848;DHT22;6994;49.752;6.094;2023-12-20T14:52:36;6.90;99.90
13848;DHT22;6994;49.752;6.094;2023-12-20T14:55:04;6.90;99.90
13848;DHT22;6994;49.752;6.094;2023-12-20T14:57:31;6.90;99.90
13848;DHT22;6994;49.752;6.094;2023-12-20T14:59:58;6.90;99.90
13848;DHT22;6994;49.752;6.094;2023-12-20T15:02:25;6.90;99.90
13848;DHT22;6994;49.752;6.094;2023-12-20T15:04:52;7.10;99.90
13848;DHT22;6994;49.752;6.094;2023-12-20T15:07:20;7.20;99.90
13848;DHT22;6994;49.752;6.094;2023-12-20T15:09:47;7.20;99.90
13848;DHT22;6994;49.752;6.094;2023-12-20T15:12:14;7.20;99.90
13848;DHT22;6994;49.752;6.094;2023-12-20T15:14:41;7.20;99.90
13848;DHT22;6994;49.752;6.094;2023-12-20T15:17:09;7.20;99.90
13848;DHT22;6994;49.752;6.094;2023-12-20T15:19:37;7.20;99.90
13848;DHT22;6994;49.752;6.094;2023-12-20T15:22:04;7.30;99.90
13848;DHT22;6994;49.752;6.094;2023-12-20T15:24:31;7.20;99.90
13848;DHT22;6994;49.752;6.094;2023-12-20T15:26:58;7.30;99.90
13848;DHT22;6994;49.752;6.094;2023-12-20T15:29:26;7.30;99.90
13848;DHT22;6994;49.752;6.094;2023-12-20T15:31:54;7.30;99.90
13848;DHT22;6994;49.752;6.094;2023-12-20T15:34:21;7.30;99.90
13848;DHT22;6994;49.752;6.094;2023-12-20T15:36:48;7.30;99.90
13848;DHT22;6994;49.752;6.094;2023-12-20T15:39:16;7.40;99.90
13848;DHT22;6994;49.752;6.094;2023-12-20T15:41:43;7.40;99.90
13848;DHT22;6994;49.752;6.094;2023-12-20T15:44:10;7.30;99.90
13848;DHT22;6994;49.752;6.094;2023-12-20T15:46:38;7.40;99.90
13848;DHT22;6994;49.752;6.094;2023-12-20T15:49:04;7.30;99.90
13848;DHT22;6994;49.752;6.094;2023-12-20T15:51:32;7.30;99.90
13848;DHT22;6994;49.752;6.094;2023-12-20T15:53:59;7.30;99.90
13848;DHT22;6994;49.752;6.094;2023-12-20T15:56:26;7.30;99.90
13848;DHT22;6994;49.752;6.094;2023-12-20T15:58:53;7.30;99.90
13848;DHT22;6994;49.752;6.094;2023-12-20T16:01:20;7.30;99.90
13848;DHT22;6994;49.752;6.094;2023-12-20T16:03:48;7.30;99.90